createdAt,value
2023-04-25T00:02:09.756Z,30.42
2023-04-25T00:04:39.131Z,33.72
2023-04-25T00:07:06.431Z,31.63
2023-04-25T00:09:33.831Z,32.75
2023-04-25T00:12:03.285Z,29.73
2023-04-25T00:14:31.281Z,28.83
2023-04-25T00:16:58.880Z,28.67
2023-04-25T00:19:26.881Z,28.30
2023-04-25T00:21:54.373Z,30.17
2023-04-25T00:24:21.106Z,28.00
2023-04-25T00:26:48.540Z,30.80
2023-04-25T00:29:15.268Z,28.75
2023-04-25T00:31:42.152Z,28.13
2023-04-25T00:34:09.367Z,30.13
2023-04-25T00:36:36.252Z,27.88
2023-04-25T00:39:03.712Z,30.45
2023-04-25T00:41:31.219Z,27.48
2023-04-25T00:43:58.834Z,25.98
2023-04-25T00:46:25.560Z,24.77
2023-04-25T00:48:52.297Z,27.15
2023-04-25T00:51:21.977Z,27.27
2023-04-25T00:53:51.315Z,25.70
2023-04-25T00:56:18.929Z,25.75
2023-04-25T00:58:46.518Z,26.55
2023-04-25T01:01:14.130Z,28.17
2023-04-25T01:03:47.545Z,31.70
2023-04-25T01:06:14.477Z,28.13
2023-04-25T01:08:41.271Z,27.00
2023-04-25T01:11:08.061Z,26.90
2023-04-25T01:13:35.633Z,26.60
2023-04-25T01:16:03.559Z,28.00
2023-04-25T01:18:30.389Z,25.55
2023-04-25T01:20:59.107Z,24.67
2023-04-25T01:23:26.181Z,26.95
2023-04-25T01:25:53.581Z,25.70
2023-04-25T01:28:20.945Z,24.55
2023-04-25T01:30:48.329Z,22.92
2023-04-25T01:33:16.463Z,22.55
2023-04-25T01:35:43.309Z,23.52
2023-04-25T01:38:10.029Z,23.70
2023-04-25T01:40:41.416Z,22.10
2023-04-25T01:43:11.997Z,26.77
2023-04-25T01:45:42.138Z,27.05
2023-04-25T01:48:10.858Z,27.08
2023-04-25T01:50:39.536Z,26.23
2023-04-25T01:53:06.749Z,24.90
2023-04-25T01:55:33.563Z,24.48
2023-04-25T01:58:01.534Z,23.55
2023-04-25T02:00:28.255Z,27.30
2023-04-25T02:02:55.055Z,23.50
2023-04-25T02:05:21.835Z,22.98
2023-04-25T02:07:49.232Z,26.20
2023-04-25T02:10:15.989Z,24.98
2023-04-25T02:12:42.809Z,24.52
2023-04-25T02:15:09.876Z,24.02
2023-04-25T02:17:36.640Z,23.83
2023-04-25T02:20:04.135Z,26.60
2023-04-25T02:22:31.592Z,24.67
2023-04-25T02:24:58.954Z,24.63
2023-04-25T02:27:25.908Z,22.90
2023-04-25T02:29:52.944Z,26.30
2023-04-25T02:32:19.593Z,24.92
2023-04-25T02:34:46.334Z,26.42
2023-04-25T02:37:14.072Z,25.50
2023-04-25T02:39:40.853Z,27.55
2023-04-25T02:42:07.512Z,25.58
2023-04-25T02:44:34.213Z,24.23
2023-04-25T02:47:02.161Z,24.60
2023-04-25T02:49:31.166Z,22.58
2023-04-25T02:51:57.948Z,21.77
2023-04-25T02:54:24.688Z,23.33
2023-04-25T02:56:51.401Z,23.15
2023-04-25T02:59:19.348Z,27.02
2023-04-25T03:01:46.429Z,26.27
2023-04-25T03:04:13.163Z,26.58
2023-04-25T03:06:39.913Z,21.48
2023-04-25T03:09:06.580Z,22.50
2023-04-25T03:11:33.340Z,20.20
2023-04-25T03:14:00.211Z,18.80
2023-04-25T03:16:27.050Z,12.88
2023-04-25T03:18:53.757Z,14.70
2023-04-25T03:21:20.517Z,12.23
2023-04-25T03:23:47.265Z,14.10
2023-04-25T03:26:14.002Z,10.82
2023-04-25T03:28:41.922Z,13.10
2023-04-25T03:31:08.687Z,10.65
2023-04-25T03:33:35.624Z,10.73
2023-04-25T03:36:02.287Z,10.35
2023-04-25T03:38:28.998Z,12.93
2023-04-25T03:40:57.228Z,14.73
2023-04-25T03:43:23.928Z,15.18
2023-04-25T03:45:50.957Z,16.33
2023-04-25T03:48:17.781Z,16.75
2023-04-25T03:50:44.473Z,17.30
2023-04-25T03:53:11.128Z,19.30
2023-04-25T03:55:37.880Z,14.32
2023-04-25T03:58:04.604Z,12.90
2023-04-25T04:00:31.454Z,12.25
2023-04-25T04:02:58.423Z,11.02
2023-04-25T04:05:25.581Z,11.02
2023-04-25T04:07:52.329Z,15.48
2023-04-25T04:10:18.993Z,18.83
2023-04-25T04:12:45.803Z,23.45
2023-04-25T04:15:12.975Z,23.55
2023-04-25T04:17:39.785Z,24.75
2023-04-25T04:20:07.313Z,26.08
2023-04-25T04:22:34.007Z,28.10
2023-04-25T04:25:00.684Z,27.60
2023-04-25T04:27:31.786Z,26.30
2023-04-25T04:29:58.687Z,24.40
2023-04-25T04:32:26.415Z,22.98
2023-04-25T04:34:55.842Z,17.58
2023-04-25T04:37:22.974Z,15.95
2023-04-25T04:39:49.675Z,15.32
2023-04-25T04:42:16.600Z,21.05
2023-04-25T04:44:45.541Z,17.08
2023-04-25T04:47:13.626Z,18.98
2023-04-25T04:49:43.356Z,20.42
2023-04-25T04:52:10.047Z,18.27
2023-04-25T04:54:36.731Z,19.98
2023-04-25T04:57:06.298Z,19.40
2023-04-25T04:59:33.063Z,20.77
2023-04-25T05:01:59.764Z,22.23
2023-04-25T05:04:26.500Z,20.75
2023-04-25T05:06:53.285Z,18.40
2023-04-25T05:09:20.290Z,19.20
2023-04-25T05:11:48.301Z,18.58
2023-04-25T05:14:15.144Z,19.02
2023-04-25T05:16:41.890Z,19.02
2023-04-25T05:19:08.693Z,18.55
2023-04-25T05:21:35.674Z,18.30
2023-04-25T05:24:02.891Z,22.98
2023-04-25T05:26:31.922Z,22.13
2023-04-25T05:28:59.107Z,22.50
2023-04-25T05:31:25.890Z,20.65
2023-04-25T05:33:53.050Z,21.90
2023-04-25T05:36:20.675Z,20.90
2023-04-25T05:38:47.454Z,21.95
2023-04-25T05:41:16.279Z,22.20
2023-04-25T05:43:48.011Z,20.67
2023-04-25T05:46:14.989Z,23.15
2023-04-25T05:48:45.400Z,20.95
2023-04-25T05:53:38.799Z,19.42
2023-04-25T05:56:05.716Z,20.55
2023-04-25T05:58:34.794Z,19.20
2023-04-25T06:01:02.741Z,18.73
2023-04-25T06:03:29.757Z,20.00
2023-04-25T06:05:56.819Z,21.73
2023-04-25T06:08:23.664Z,19.67
2023-04-25T06:10:55.562Z,23.00
2023-04-25T06:13:22.324Z,20.83
2023-04-25T06:15:49.046Z,23.60
2023-04-25T06:18:15.861Z,27.10
2023-04-25T06:20:46.300Z,23.17
2023-04-25T06:25:42.266Z,22.15
2023-04-25T06:28:10.865Z,21.60
2023-04-25T06:30:39.001Z,22.60
2023-04-25T06:33:06.091Z,21.60
2023-04-25T06:35:36.704Z,21.75
2023-04-25T06:38:04.440Z,21.05
2023-04-25T06:40:31.172Z,25.08
2023-04-25T06:42:58.816Z,23.40
2023-04-25T06:45:25.573Z,23.05
2023-04-25T06:47:52.931Z,21.55
2023-04-25T06:50:19.814Z,21.55
2023-04-25T06:52:46.562Z,20.67
2023-04-25T06:55:13.222Z,20.15
2023-04-25T06:57:40.100Z,20.80
2023-04-25T07:00:10.033Z,18.98
2023-04-25T07:02:37.167Z,20.42
2023-04-25T07:05:05.382Z,18.95
2023-04-25T07:07:32.106Z,19.67
2023-04-25T07:09:58.862Z,19.33
2023-04-25T07:12:25.564Z,20.17
2023-04-25T07:14:52.298Z,20.15
2023-04-25T07:17:19.034Z,19.45
2023-04-25T07:19:45.975Z,20.23
2023-04-25T07:22:12.915Z,20.60
2023-04-25T07:24:40.040Z,22.75
2023-04-25T07:27:07.241Z,20.70
2023-04-25T07:29:36.894Z,20.77
2023-04-25T07:32:03.773Z,21.85
2023-04-25T07:34:31.392Z,20.33
2023-04-25T07:36:58.285Z,23.25
2023-04-25T07:39:25.064Z,18.83
2023-04-25T07:41:54.518Z,19.27
2023-04-25T07:44:22.074Z,19.10
2023-04-25T07:46:48.798Z,18.83
2023-04-25T07:49:15.772Z,20.05
2023-04-25T07:51:44.399Z,16.45
2023-04-25T07:54:19.135Z,20.40
2023-04-25T07:56:52.536Z,19.90
2023-04-25T07:59:20.033Z,19.30
2023-04-25T08:01:46.805Z,19.40
2023-04-25T08:04:13.616Z,20.10
2023-04-25T08:06:41.663Z,20.27
2023-04-25T08:09:10.267Z,21.60
2023-04-25T08:11:37.536Z,20.90
2023-04-25T08:14:04.384Z,21.65
2023-04-25T08:16:31.386Z,20.02
2023-04-25T08:18:58.183Z,20.55
2023-04-25T08:21:24.951Z,24.00
2023-04-25T08:23:51.648Z,21.23
2023-04-25T08:26:18.349Z,21.52
2023-04-25T08:28:45.387Z,21.45
2023-04-25T08:31:12.103Z,19.90
2023-04-25T08:33:38.838Z,20.00
2023-04-25T08:36:06.090Z,18.95
2023-04-25T08:38:34.354Z,20.85
2023-04-25T08:41:04.684Z,19.42
2023-04-25T08:43:34.678Z,17.88
2023-04-25T08:46:02.043Z,16.20
2023-04-25T08:48:31.995Z,19.48
2023-04-25T08:50:59.727Z,19.05
2023-04-25T08:53:29.454Z,19.35
2023-04-25T08:55:58.055Z,21.80
2023-04-25T08:58:25.461Z,20.00
2023-04-25T09:00:53.896Z,18.77
2023-04-25T09:03:21.365Z,20.77
2023-04-25T09:05:48.342Z,20.92
2023-04-25T09:08:15.068Z,18.20
2023-04-25T09:10:42.112Z,16.08
2023-04-25T09:13:12.384Z,20.92
2023-04-25T09:15:53.176Z,18.95
2023-04-25T09:18:30.808Z,20.30
2023-04-25T09:21:18.127Z,20.25
2023-04-25T09:23:50.044Z,18.50
2023-04-25T09:26:19.815Z,23.52
2023-04-25T09:28:48.914Z,19.33
2023-04-25T09:31:34.533Z,19.90
2023-04-25T09:34:02.380Z,20.98
2023-04-25T09:36:30.823Z,20.38
2023-04-25T09:39:00.384Z,18.10
2023-04-25T09:41:27.369Z,20.92
2023-04-25T09:44:00.220Z,20.08
2023-04-25T09:46:39.953Z,21.58
2023-04-25T09:49:09.662Z,21.50
2023-04-25T09:51:36.330Z,19.25
2023-04-25T09:54:04.079Z,21.88
2023-04-25T09:56:37.366Z,18.80
2023-04-25T09:59:04.718Z,19.77
2023-04-25T10:01:31.921Z,20.40
2023-04-25T10:03:59.857Z,25.20
2023-04-25T10:06:28.101Z,21.85
2023-04-25T10:08:56.893Z,21.33
2023-04-25T10:11:27.090Z,20.70
2023-04-25T10:13:54.007Z,20.92
2023-04-25T10:16:22.115Z,20.10
2023-04-25T10:18:49.702Z,21.48
2023-04-25T10:21:17.725Z,22.42
2023-04-25T10:23:46.516Z,20.58
2023-04-25T10:26:14.268Z,17.65
2023-04-25T10:29:03.997Z,19.27
2023-04-25T10:31:32.323Z,16.52
2023-04-25T10:34:00.889Z,15.23
2023-04-25T10:36:32.560Z,18.13
2023-04-25T10:39:07.821Z,22.67
2023-04-25T10:41:49.060Z,18.08
2023-04-25T10:44:16.501Z,15.65
2023-04-25T10:46:46.723Z,16.55
2023-04-25T10:52:16.136Z,14.35
2023-04-25T10:54:47.112Z,11.82
2023-04-25T10:57:37.154Z,10.68
2023-04-25T11:00:17.456Z,13.77
2023-04-25T11:02:45.387Z,12.77
2023-04-25T11:05:21.480Z,9.20
2023-04-25T11:08:03.902Z,10.35
2023-04-25T11:10:36.620Z,10.40
2023-04-25T11:13:03.700Z,11.85
2023-04-25T11:15:30.675Z,11.23
2023-04-25T11:17:57.488Z,17.88
2023-04-25T11:20:27.227Z,10.60
2023-04-25T11:22:54.123Z,12.30
2023-04-25T11:25:21.187Z,16.38
2023-04-25T11:27:58.102Z,22.83
2023-04-25T11:30:26.530Z,19.75
2023-04-25T11:32:53.835Z,15.43
2023-04-25T11:35:23.765Z,11.05
2023-04-25T11:37:51.205Z,9.02
2023-04-25T11:40:18.586Z,9.40
2023-04-25T11:42:46.984Z,9.88
2023-04-25T11:45:14.379Z,9.45
2023-04-25T11:47:41.508Z,12.32
2023-04-25T11:50:46.340Z,8.07
2023-04-25T11:59:56.470Z,17.23
2023-04-25T12:02:40.764Z,12.20
2023-04-25T12:05:31.944Z,11.60
2023-04-25T12:08:11.595Z,11.18
2023-04-25T12:10:42.967Z,13.43
2023-04-25T12:17:00.251Z,10.18
2023-04-25T12:19:42.073Z,11.43
2023-04-25T12:22:26.848Z,13.23
2023-04-25T12:24:59.749Z,13.23
2023-04-25T12:27:30.503Z,14.68
2023-04-25T12:30:03.724Z,12.32
2023-04-25T12:32:32.359Z,16.75
2023-04-25T12:34:59.790Z,18.08
2023-04-25T12:37:30.067Z,16.50
2023-04-25T12:39:57.632Z,16.75
2023-04-25T12:42:26.376Z,15.10
2023-04-25T12:44:53.402Z,17.70
2023-04-25T12:47:25.378Z,17.80
2023-04-25T12:50:02.842Z,14.75
2023-04-25T12:52:41.396Z,17.60
2023-04-25T12:55:19.154Z,18.05
2023-04-25T12:57:55.130Z,20.98
2023-04-25T13:00:33.174Z,17.52
2023-04-25T13:03:27.120Z,21.90
2023-04-25T13:06:00.673Z,20.33
2023-04-25T13:14:03.146Z,27.48
2023-04-25T13:16:30.240Z,27.67
2023-04-25T13:18:57.577Z,27.23
2023-04-25T13:21:28.192Z,30.33
2023-04-25T13:23:59.904Z,27.52
2023-04-25T13:26:27.441Z,26.27
2023-04-25T13:28:54.686Z,20.65
2023-04-25T13:31:23.228Z,21.95
2023-04-25T13:33:50.895Z,19.88
2023-04-25T13:36:19.355Z,17.88
2023-04-25T13:38:48.646Z,20.17
2023-04-25T13:41:21.712Z,20.17
2023-04-25T13:43:51.826Z,17.95
2023-04-25T13:46:40.751Z,18.70
2023-04-25T13:49:12.833Z,17.90
2023-04-25T13:51:43.811Z,18.65
2023-04-25T13:56:43.597Z,18.33
2023-04-25T13:59:13.625Z,16.23
2023-04-25T14:01:43.710Z,16.67
2023-04-25T14:04:11.194Z,18.40
2023-04-25T14:09:18.225Z,17.65
2023-04-25T14:11:46.039Z,17.58
2023-04-25T14:14:18.280Z,18.50
2023-04-25T14:16:48.797Z,18.88
2023-04-25T14:19:22.320Z,18.60
2023-04-25T14:21:52.952Z,21.88
2023-04-25T14:26:51.799Z,20.80
2023-04-25T14:29:21.436Z,21.63
2023-04-25T14:31:51.535Z,20.00
2023-04-25T14:34:21.507Z,19.38
2023-04-25T14:36:54.760Z,21.70
2023-04-25T14:39:24.440Z,17.85
2023-04-25T14:41:51.380Z,17.58
2023-04-25T14:44:18.703Z,19.23
2023-04-25T14:46:53.864Z,17.17
2023-04-25T14:51:35.210Z,15.68
2023-04-25T14:53:34.647Z,17.40
2023-04-25T14:57:57.640Z,21.70
2023-04-25T14:59:55.470Z,21.55
2023-04-25T15:02:48.304Z,22.75
2023-04-25T15:05:17.285Z,22.58
2023-04-25T15:08:20.854Z,22.80
2023-04-25T15:16:55.861Z,27.15
2023-04-25T15:34:09.923Z,24.13
2023-04-25T15:36:48.041Z,25.17
2023-04-25T15:39:23.281Z,30.27
2023-04-25T15:42:00.318Z,31.25
2023-04-25T15:45:45.007Z,33.03
2023-04-25T15:48:20.151Z,33.35
2023-04-25T15:51:28.361Z,34.50
2023-04-25T15:55:22.080Z,34.38
2023-04-25T15:57:37.195Z,30.70
2023-04-25T16:00:11.806Z,24.58
2023-04-25T16:05:59.955Z,29.13
2023-04-25T16:08:36.390Z,47.90
2023-04-25T16:11:17.954Z,67.07
2023-04-25T16:17:38.897Z,33.38
2023-04-25T16:20:28.880Z,31.75
2023-04-25T16:29:42.979Z,26.15
2023-04-25T16:39:34.529Z,28.02
2023-04-25T16:42:22.968Z,25.15
2023-04-25T16:45:26.396Z,27.23
2023-04-25T16:47:57.997Z,25.35
2023-04-25T16:53:46.771Z,29.63
2023-04-25T16:56:21.300Z,27.88
2023-04-25T16:58:55.872Z,28.95
2023-04-25T17:01:23.097Z,30.98
2023-04-25T17:03:53.268Z,30.65
2023-04-25T17:06:20.742Z,26.05
2023-04-25T17:08:47.585Z,20.85
2023-04-25T17:11:17.156Z,29.52
2023-04-25T17:13:44.513Z,28.23
2023-04-25T17:16:13.801Z,23.58
2023-04-25T17:18:42.100Z,28.70
2023-04-25T17:21:15.029Z,28.75
2023-04-25T17:23:45.556Z,33.53
2023-04-25T17:26:13.576Z,23.33
2023-04-25T17:28:43.898Z,29.52
2023-04-25T17:31:16.714Z,149.98
2023-04-25T17:33:44.870Z,32.97
2023-04-25T17:36:12.431Z,38.58
2023-04-25T17:38:39.221Z,44.85
2023-04-25T17:41:06.214Z,27.10
2023-04-25T17:43:33.383Z,37.40
2023-04-25T17:46:00.551Z,34.78
2023-04-25T17:48:27.691Z,36.17
2023-04-25T17:50:54.461Z,32.45
2023-04-25T17:53:21.320Z,37.90
2023-04-25T17:55:50.320Z,34.47
2023-04-25T17:58:17.534Z,35.30
2023-04-25T18:00:44.778Z,40.05
2023-04-25T18:03:12.060Z,38.72
2023-04-25T18:05:38.919Z,42.45
2023-04-25T18:08:06.831Z,45.05
2023-04-25T18:10:34.296Z,44.45
2023-04-25T18:13:01.193Z,32.10
2023-04-25T18:15:28.786Z,37.15
2023-04-25T18:17:57.314Z,28.63
2023-04-25T18:20:24.209Z,30.38
2023-04-25T18:22:51.207Z,26.23
2023-04-25T18:25:36.678Z,28.17
2023-04-25T18:28:09.485Z,28.20
2023-04-25T18:36:53.132Z,26.83
2023-04-25T18:39:42.576Z,35.55
2023-04-25T18:50:49.627Z,25.70
2023-04-25T18:53:22.444Z,22.30
2023-04-25T18:55:51.168Z,19.85
2023-04-25T18:58:18.973Z,22.45
2023-04-25T19:00:49.173Z,24.35
2023-04-25T19:03:18.285Z,23.40
2023-04-25T19:05:50.735Z,28.35
2023-04-25T19:08:23.405Z,24.95
2023-04-25T19:10:53.904Z,25.17
2023-04-25T19:13:21.866Z,29.90
2023-04-25T19:15:49.912Z,27.40
2023-04-25T19:18:24.060Z,23.27
2023-04-25T19:20:53.317Z,20.55
2023-04-25T19:23:25.538Z,23.55
2023-04-25T19:25:55.617Z,26.10
2023-04-25T19:28:28.751Z,32.55
2023-04-25T19:30:55.660Z,23.35
2023-04-25T19:34:01.760Z,28.15
2023-04-25T19:36:29.584Z,25.23
2023-04-25T19:39:22.763Z,26.10
2023-04-25T19:44:34.903Z,26.00
2023-04-25T19:47:07.989Z,22.65
2023-04-25T19:52:24.918Z,23.40
2023-04-25T19:57:52.128Z,32.50
2023-04-25T20:00:21.550Z,29.00
2023-04-25T20:02:48.586Z,33.30
2023-04-25T20:05:18.184Z,33.38
2023-04-25T20:07:45.452Z,37.30
2023-04-25T20:10:19.583Z,34.85
2023-04-25T20:12:51.944Z,38.20
2023-04-25T20:15:24.944Z,39.63
2023-04-25T20:17:51.920Z,36.40
2023-04-25T20:20:20.311Z,33.55
2023-04-25T20:22:47.347Z,36.63
2023-04-25T20:25:15.507Z,39.28
2023-04-25T20:27:42.717Z,38.13
2023-04-25T20:30:13.193Z,44.38
2023-04-25T20:35:14.362Z,44.33
2023-04-25T20:37:44.671Z,38.85
2023-04-25T20:40:20.660Z,39.08
2023-04-25T20:42:47.704Z,41.22
2023-04-25T20:45:18.037Z,37.25
2023-04-25T20:47:56.975Z,36.47
2023-04-25T20:50:32.906Z,40.42
2023-04-25T20:53:06.681Z,44.30
2023-04-25T20:55:34.589Z,41.15
2023-04-25T20:58:01.420Z,42.15
2023-04-25T21:01:26.571Z,45.40
2023-04-25T21:04:12.046Z,43.05
2023-04-25T21:06:38.930Z,48.45
2023-04-25T21:09:07.069Z,40.80
2023-04-25T21:11:36.534Z,44.03
2023-04-25T21:14:03.862Z,41.73
2023-04-25T21:16:34.925Z,43.22
2023-04-25T21:23:03.658Z,43.72
2023-04-25T21:25:39.160Z,41.38
2023-04-25T21:28:07.924Z,40.55
2023-04-25T21:30:34.781Z,39.05
2023-04-25T21:33:03.582Z,41.80
2023-04-25T21:35:35.191Z,41.53
2023-04-25T21:38:02.170Z,36.03
2023-04-25T21:40:32.236Z,40.05
2023-04-25T21:43:00.436Z,37.05
2023-04-25T21:48:53.072Z,37.70
2023-04-25T21:51:21.951Z,36.80
2023-04-25T21:53:49.098Z,37.08
2023-04-25T21:59:01.912Z,37.15
2023-04-25T22:01:30.026Z,38.97
2023-04-25T22:03:57.099Z,36.90
2023-04-25T22:06:24.002Z,29.38
2023-04-25T22:08:57.736Z,29.92
2023-04-25T22:11:26.656Z,30.63
2023-04-25T22:13:57.277Z,33.40
2023-04-25T22:16:24.341Z,29.00
2023-04-25T22:18:53.256Z,28.13
2023-04-25T22:21:22.950Z,29.02
2023-04-25T22:23:53.165Z,28.42
2023-04-25T22:26:26.329Z,26.02
2023-04-25T22:28:55.649Z,24.58
2023-04-25T22:31:22.371Z,25.52
2023-04-25T22:33:49.524Z,22.02
2023-04-25T22:36:21.725Z,27.10
2023-04-25T22:38:50.596Z,23.52
2023-04-25T22:41:17.737Z,23.85
2023-04-25T22:43:47.428Z,23.55
2023-04-25T22:46:21.645Z,23.25
2023-04-25T22:48:49.016Z,23.85
2023-04-25T22:51:16.075Z,23.92
2023-04-25T22:53:49.523Z,28.20
2023-04-25T22:56:19.476Z,20.95
2023-04-25T22:58:50.230Z,21.05
2023-04-25T23:01:19.252Z,23.48
2023-04-25T23:03:47.140Z,20.15
2023-04-25T23:06:13.926Z,23.10
2023-04-25T23:08:41.813Z,20.42
2023-04-25T23:11:08.979Z,21.15
2023-04-25T23:13:38.962Z,22.55
2023-04-25T23:16:10.950Z,20.88
2023-04-25T23:18:39.402Z,20.63
2023-04-25T23:21:11.342Z,22.83
2023-04-25T23:23:38.838Z,20.88
2023-04-25T23:26:10.192Z,21.55
2023-04-25T23:28:41.699Z,19.92
2023-04-25T23:31:10.502Z,22.45
2023-04-25T23:33:37.593Z,21.95
2023-04-25T23:36:06.244Z,25.02
2023-04-25T23:38:33.386Z,22.45
2023-04-25T23:41:00.108Z,21.55
2023-04-25T23:43:26.857Z,23.75
2023-04-25T23:45:55.383Z,24.70
2023-04-25T23:48:23.005Z,20.48
2023-04-25T23:50:49.762Z,21.38
2023-04-25T23:53:16.820Z,21.50
2023-04-25T23:55:43.560Z,21.67
2023-04-25T23:58:10.587Z,24.38
